Time;durP1;ratioP1;P1;durP2;ratioP2;P2;SDS_P1;SDS_P2;PMS_P1;PMS_P2;Temp;Humidity;BMP_temperature;BMP_pressure;BME280_temperature;BME280_humidity;BME280_pressure;Samples;Min_cycle;Max_cycle;Signal;HPM_P1;HPM_P2
2024/03/25 00:02:11;;;;;;;5.07;2.50;;;6.10;99.90;;;;;;4880152;29;20478;-68
2024/03/25 00:04:40;;;;;;;5.43;2.73;;;6.10;99.90;;;;;;4879844;29;20527;-68
2024/03/25 00:07:06;;;;;;;7.23;3.20;;;6.10;99.90;;;;;;4879708;29;20451;-68
2024/03/25 00:09:33;;;;;;;7.23;2.73;;;6.10;99.90;;;;;;4880404;29;20468;-68
2024/03/25 00:11:59;;;;;;;4.97;3.10;;;6.10;99.90;;;;;;4879481;29;20896;-68
2024/03/25 00:14:27;;;;;;;4.20;2.73;;;6.10;99.90;;;;;;4880028;29;20440;-68
2024/03/25 00:16:53;;;;;;;5.13;3.00;;;6.10;99.90;;;;;;4879813;29;20538;-68
2024/03/25 00:19:27;;;;;;;6.13;2.70;;;6.10;99.90;;;;;;4879591;29;20462;-68
2024/03/25 00:21:55;;;;;;;6.07;2.20;;;6.10;99.90;;;;;;4879538;29;21061;-68
2024/03/25 00:24:22;;;;;;;4.87;2.70;;;6.10;99.90;;;;;;4879396;29;20457;-68
2024/03/25 00:26:48;;;;;;;7.57;2.87;;;6.10;99.90;;;;;;4879452;29;20483;-68
2024/03/25 00:29:15;;;;;;;5.50;3.07;;;6.10;99.90;;;;;;4879647;29;20570;-68
2024/03/25 00:31:42;;;;;;;4.17;2.20;;;6.10;99.90;;;;;;4879402;29;20487;-67
2024/03/25 00:34:09;;;;;;;8.20;2.97;;;6.10;99.90;;;;;;4879415;29;20450;-68
2024/03/25 00:36:35;;;;;;;6.20;3.23;;;6.00;99.90;;;;;;4879429;29;20842;-68
2024/03/25 00:39:04;;;;;;;9.47;4.70;;;6.00;99.90;;;;;;4879370;29;20448;-68
2024/03/25 00:41:31;;;;;;;6.67;3.20;;;6.00;99.90;;;;;;4879265;29;20903;-68
2024/03/25 00:43:58;;;;;;;5.20;3.67;;;6.00;99.90;;;;;;4878645;29;20450;-68
2024/03/25 00:46:24;;;;;;;6.20;3.33;;;6.00;99.90;;;;;;4879072;29;20548;-68
2024/03/25 00:48:52;;;;;;;6.80;3.50;;;6.00;99.90;;;;;;4894545;29;20450;-68
2024/03/25 00:51:18;;;;;;;7.83;3.07;;;6.00;99.90;;;;;;4878813;29;20911;-68
2024/03/25 00:53:46;;;;;;;8.83;3.47;;;6.00;99.90;;;;;;4879471;29;20451;-68
2024/03/25 00:56:13;;;;;;;7.80;3.80;;;6.00;99.90;;;;;;4878918;29;20454;-68
2024/03/25 00:58:40;;;;;;;8.90;4.23;;;5.90;99.90;;;;;;4878846;29;20458;-68
2024/03/25 01:01:07;;;;;;;5.90;3.30;;;5.90;99.90;;;;;;4878742;29;20471;-67
2024/03/25 01:03:34;;;;;;;8.00;3.40;;;5.90;99.90;;;;;;4878834;29;20451;-68
2024/03/25 01:06:00;;;;;;;6.30;3.60;;;5.90;99.90;;;;;;4878776;29;20454;-68
2024/03/25 01:08:28;;;;;;;10.73;3.90;;;5.90;99.90;;;;;;4878762;29;20961;-67
2024/03/25 01:10:54;;;;;;;6.00;3.43;;;5.90;99.90;;;;;;4878560;29;20485;-68
2024/03/25 01:13:23;;;;;;;6.50;3.77;;;5.90;99.90;;;;;;4878326;29;20477;-68
2024/03/25 01:15:49;;;;;;;6.30;2.90;;;5.80;99.90;;;;;;4878136;29;20499;-68
2024/03/25 01:18:16;;;;;;;5.50;3.20;;;5.80;99.90;;;;;;4877744;29;20487;-68
2024/03/25 01:20:42;;;;;;;8.30;3.50;;;5.80;99.90;;;;;;4877772;29;20466;-70
2024/03/25 01:23:10;;;;;;;9.00;3.30;;;5.80;99.90;;;;;;4877691;29;20454;-68
2024/03/25 01:25:36;;;;;;;6.47;4.20;;;5.70;99.90;;;;;;4877805;29;20491;-68
2024/03/25 01:28:04;;;;;;;8.83;3.40;;;5.70;99.90;;;;;;4877850;29;20533;-68
2024/03/25 01:30:32;;;;;;;5.10;4.10;;;5.70;99.90;;;;;;4877646;29;20490;-68
2024/03/25 01:32:59;;;;;;;5.73;2.77;;;5.70;99.90;;;;;;4877833;29;20819;-68
2024/03/25 01:35:25;;;;;;;6.13;3.23;;;5.70;99.90;;;;;;4878031;29;20539;-68
2024/03/25 01:37:53;;;;;;;13.23;4.43;;;5.70;99.90;;;;;;4877870;29;20450;-68
2024/03/25 01:40:19;;;;;;;8.30;3.27;;;5.70;99.90;;;;;;4878468;29;20782;-68
2024/03/25 01:42:56;;;;;;;7.20;3.00;;;5.60;99.90;;;;;;4878328;29;20461;-68
2024/03/25 01:45:23;;;;;;;6.60;3.37;;;5.60;99.90;;;;;;4877956;29;20441;-68
2024/03/25 01:47:52;;;;;;;5.40;3.17;;;5.60;99.90;;;;;;4878082;29;20452;-68
2024/03/25 01:50:19;;;;;;;11.53;3.33;;;5.60;99.90;;;;;;4877873;29;20509;-67
2024/03/25 01:52:46;;;;;;;8.57;3.17;;;5.60;99.90;;;;;;4878107;29;20851;-68
2024/03/25 01:55:17;;;;;;;8.97;3.00;;;5.50;99.90;;;;;;4878986;29;20551;-68
2024/03/25 01:57:46;;;;;;;6.43;2.93;;;5.50;99.90;;;;;;4880785;29;20931;-67
2024/03/25 02:00:13;;;;;;;6.90;3.40;;;5.50;99.90;;;;;;4880839;29;20960;-68
2024/03/25 02:02:47;;;;;;;6.30;3.00;;;5.50;99.90;;;;;;4881324;29;20438;-68
2024/03/25 02:05:15;;;;;;;6.90;3.00;;;5.50;99.90;;;;;;4896381;29;20451;-68
2024/03/25 02:07:43;;;;;;;6.03;3.10;;;5.50;99.90;;;;;;4880786;29;20447;-68
2024/03/25 02:10:10;;;;;;;6.40;3.60;;;5.50;99.90;;;;;;4880485;29;20454;-68
2024/03/25 02:12:38;;;;;;;12.37;3.80;;;5.50;99.90;;;;;;4841771;29;1161231;-68
2024/03/25 02:15:06;;;;;;;7.30;2.97;;;5.50;99.90;;;;;;4881962;29;20288;-68
2024/03/25 02:17:33;;;;;;;7.17;3.50;;;5.50;99.90;;;;;;4884162;29;20454;-68
2024/03/25 02:19:59;;;;;;;7.77;3.50;;;5.50;99.90;;;;;;4885131;29;20867;-68
2024/03/25 02:22:29;;;;;;;6.73;3.67;;;5.50;99.90;;;;;;4883640;29;20871;-67
2024/03/25 02:24:57;;;;;;;4.80;3.17;;;5.50;99.90;;;;;;4882057;29;20541;-68
2024/03/25 02:27:28;;;;;;;6.90;4.00;;;5.50;99.90;;;;;;4882079;29;20457;-68
2024/03/25 02:29:54;;;;;;;5.37;2.90;;;5.50;99.90;;;;;;4882749;29;20490;-68
2024/03/25 02:32:21;;;;;;;5.40;3.23;;;5.50;99.90;;;;;;4881712;29;20486;-69
2024/03/25 02:34:50;;;;;;;6.47;3.07;;;5.50;99.90;;;;;;4881890;29;20446;-68
2024/03/25 02:37:17;;;;;;;7.40;2.90;;;5.50;99.90;;;;;;4882270;29;20463;-68
2024/03/25 02:39:44;;;;;;;7.53;2.70;;;5.50;99.90;;;;;;4881506;29;20469;-68
2024/03/25 02:42:11;;;;;;;6.37;3.10;;;5.50;99.90;;;;;;4881300;29;20476;-68
2024/03/25 02:44:43;;;;;;;8.33;3.70;;;5.50;99.90;;;;;;4881613;29;20453;-68
2024/03/25 02:47:11;;;;;;;6.50;3.37;;;5.50;99.90;;;;;;4881291;29;20491;-68
2024/03/25 02:49:38;;;;;;;5.00;2.63;;;5.50;99.90;;;;;;4881135;29;20449;-68
2024/03/25 02:52:06;;;;;;;6.33;3.43;;;5.50;99.90;;;;;;4896871;29;20659;-68
2024/03/25 02:54:32;;;;;;;8.67;3.50;;;5.50;99.90;;;;;;4881069;29;20459;-68
2024/03/25 02:56:59;;;;;;;6.20;3.20;;;5.60;99.90;;;;;;4881099;29;20454;-68
2024/03/25 02:59:25;;;;;;;6.17;3.57;;;5.60;99.90;;;;;;4881084;29;20487;-68
2024/03/25 03:01:54;;;;;;;6.63;3.47;;;5.60;99.90;;;;;;4881042;29;20471;-68
2024/03/25 03:04:20;;;;;;;5.33;2.60;;;5.60;99.90;;;;;;4880933;29;20445;-67
2024/03/25 03:06:48;;;;;;;5.63;3.17;;;5.60;99.90;;;;;;4880957;29;20454;-68
2024/03/25 03:09:15;;;;;;;5.70;3.50;;;5.60;99.90;;;;;;4881244;29;20489;-68
2024/03/25 03:11:42;;;;;;;5.77;2.70;;;5.60;99.90;;;;;;4880592;29;21067;-68
2024/03/25 03:14:08;;;;;;;9.27;3.27;;;5.60;99.90;;;;;;4881044;29;20455;-68
2024/03/25 03:16:36;;;;;;;5.17;2.80;;;5.70;99.90;;;;;;4881520;29;20455;-68
2024/03/25 03:19:03;;;;;;;7.60;3.50;;;5.60;99.90;;;;;;4881222;29;20549;-68
2024/03/25 03:21:31;;;;;;;7.37;3.30;;;5.60;99.90;;;;;;4881114;29;20462;-67
2024/03/25 03:23:57;;;;;;;8.63;3.60;;;5.70;99.90;;;;;;4880889;29;20456;-68
2024/03/25 03:26:26;;;;;;;5.00;3.23;;;5.60;99.90;;;;;;4880746;29;20917;-68
2024/03/25 03:28:53;;;;;;;8.03;3.70;;;5.70;99.90;;;;;;4880608;29;20503;-68
2024/03/25 03:31:21;;;;;;;7.60;3.90;;;5.70;99.90;;;;;;4880415;29;20486;-68
2024/03/25 03:33:47;;;;;;;5.93;3.97;;;5.70;99.90;;;;;;4880374;29;20457;-68
2024/03/25 03:36:17;;;;;;;7.27;4.10;;;5.70;99.90;;;;;;4880503;29;20466;-68
2024/03/25 03:38:43;;;;;;;6.77;4.10;;;5.70;99.90;;;;;;4880554;29;20446;-68
2024/03/25 03:41:10;;;;;;;6.57;3.83;;;5.70;99.90;;;;;;4880200;29;20470;-68
2024/03/25 03:43:37;;;;;;;8.73;3.93;;;5.70;99.90;;;;;;4880105;29;20454;-68
2024/03/25 03:46:06;;;;;;;8.57;4.70;;;5.70;99.90;;;;;;4880259;29;20863;-68
2024/03/25 03:48:32;;;;;;;7.17;4.10;;;5.70;99.90;;;;;;4880141;29;20450;-68
2024/03/25 03:50:59;;;;;;;8.40;4.13;;;5.80;99.90;;;;;;4880280;29;20983;-71
2024/03/25 03:53:27;;;;;;;13.67;5.57;;;5.80;99.90;;;;;;4880180;29;20456;-68
2024/03/25 03:55:55;;;;;;;8.70;5.10;;;5.80;99.90;;;;;;4880200;29;20943;-68
2024/03/25 03:58:21;;;;;;;14.53;5.37;;;5.80;99.90;;;;;;4879901;29;20498;-68
2024/03/25 04:00:48;;;;;;;10.17;5.03;;;5.80;99.90;;;;;;4879873;29;20470;-68
2024/03/25 04:03:15;;;;;;;15.73;4.93;;;5.80;99.90;;;;;;4879873;29;20515;-68
2024/03/25 04:05:42;;;;;;;13.13;5.87;;;5.80;99.90;;;;;;4879768;29;20460;-68
2024/03/25 04:08:08;;;;;;;11.53;4.40;;;5.80;99.90;;;;;;4879683;29;20455;-68
2024/03/25 04:10:37;;;;;;;15.33;5.60;;;5.80;99.90;;;;;;4879576;29;20506;-68
2024/03/25 04:13:04;;;;;;;10.43;6.27;;;5.80;99.90;;;;;;4879689;29;20468;-68
2024/03/25 04:15:34;;;;;;;13.60;4.90;;;5.80;99.90;;;;;;4879591;29;20457;-68
2024/03/25 04:18:00;;;;;;;13.13;4.43;;;5.80;99.90;;;;;;4878908;29;20449;-68
2024/03/25 04:20:28;;;;;;;10.10;4.20;;;5.80;99.90;;;;;;4879431;29;20487;-68
2024/03/25 04:22:55;;;;;;;10.10;4.73;;;5.80;99.90;;;;;;4880084;29;20450;-68
2024/03/25 04:25:22;;;;;;;10.17;3.60;;;5.80;99.90;;;;;;4879523;29;20462;-68
2024/03/25 04:27:50;;;;;;;14.80;4.33;;;5.80;99.90;;;;;;4879773;29;20862;-68
2024/03/25 04:30:17;;;;;;;11.70;6.10;;;5.80;99.90;;;;;;4879390;29;20507;-68
2024/03/25 04:32:44;;;;;;;7.60;4.20;;;5.80;99.90;;;;;;4879526;29;20491;-68
2024/03/25 04:35:12;;;;;;;14.10;5.20;;;5.80;99.90;;;;;;4879902;29;20815;-68
